Главная страница
METAR-TAF:

METAR-TAF

Аэропорты :

Оренбург, Россия

широта: 51-46-48N, долгота: 055-07-12E, высота над уровнем моря: 109 м

Текущие метеонаблюдения

Эта сводка был подготовлена 49 минут назад, в 11:30 UTC
Ветер 6 Узел от восточный
Температура -9°C
Влажность 62%
Давление 1039 hPa
Видимость 10 км и более
Нет облачности ниже 1500 м, и нет кучево-дождевой облачности

METAR: UWOO 151130Z 09003MPS CAVOK M09/M15 Q1039 R08/810257 NOSIG RMK QFE769/1025

Время: 17:19 (12:19 UTC)

Прогноз

Эта сводка был подготовлена 1 час и 19 минут назад, в 11:00 UTC
Прогноз действительный с 15-го 12 UTC до 16-го 12 UTC
Ветер 10 Узел от восточный
Видимость 10 км и более
Рассеянная облачность на высоте 1500 фута
временами
С 15-го 12 UTC до 16-го 12 UTC
Ветер 6 Узел от восточный с порывами до 16 Узел
Видимость: 3100 м
Отдельные облака на высоте 1100 фута
дымка

TAF: UWOO 151100Z 1512/1612 10005MPS 9999 BKN015 TX09/1610Z TNM17/1601Z TEMPO 1512/1612 08003G08MPS 3100 BR SCT011

Метеонаблюдения и прогнозы для более 4000 аэропортов (сводки METAR и TAF).

Имеющиеся станции представлены на карте желтыми и красными точками.

Чтобы увидеть название станции, наведите на нее мышь.

Затем щелкните, чтобы увидеть метеонаблюдения и метеопрогнозы.

Управление картой: чтобы увеличить масштаб, щелкните зеленые кнопки с черным крестиком; чтобы уменьшить масштаб, щелкните зеленую кнопку с тире; для просмотра соседних карт щелкайте зеленые стрелки.


METAR-TAF: